Terminal Aerodrome Forecast
Issued by NWS Topeka, KS

Home | Current Version | Previous Version | Graphics & Text | Print | Product List | Glossary On
Versions: 1 2 3 4 5 6 7 8 9 10 11 12 13 14 15 16 17 18 19 20 21 22 23 24 25
420
FTUS43 KTOP 201133
TAFTOP
TAF
KTOP 201133Z 2012/2112 10004KT 1/4SM FG OVC003
     FM201700 11005KT 2SM BR OVC003
     FM202000 13006KT P6SM BKN007
     FM210200 17005KT P6SM BKN025
     FM210500 19005KT P6SM BKN080
     FM210900 21005KT P6SM BKN025=

USA.gov is the U.S. government's official web portal to all federal, state and local government web resources and services.